sensor_id;sensor_type;location;lat;lon;timestamp;pressure;altitude;pressure_sealevel;temperature;humidity
3142;BME280;1581;51.568;6.998;2023-05-02T00:00:07;101125.56;;;12.43;100.00
3142;BME280;1581;51.568;6.998;2023-05-02T00:02:35;101129.81;;;12.31;100.00
3142;BME280;1581;51.568;6.998;2023-05-02T00:05:04;101134.66;;;12.28;100.00
3142;BME280;1581;51.568;6.998;2023-05-02T00:07:32;101138.75;;;12.24;100.00
3142;BME280;1581;51.568;6.998;2023-05-02T00:10:00;101138.69;;;12.17;100.00
3142;BME280;1581;51.568;6.998;2023-05-02T00:12:28;101143.81;;;12.19;100.00
3142;BME280;1581;51.568;6.998;2023-05-02T00:14:57;101134.22;;;12.24;100.00
3142;BME280;1581;51.568;6.998;2023-05-02T00:17:26;101136.66;;;12.19;100.00
3142;BME280;1581;51.568;6.998;2023-05-02T00:19:54;101140.78;;;12.22;100.00
3142;BME280;1581;51.568;6.998;2023-05-02T00:22:22;101143.78;;;12.33;100.00
3142;BME280;1581;51.568;6.998;2023-05-02T00:24:54;101138.19;;;12.28;100.00
3142;BME280;1581;51.568;6.998;2023-05-02T00:27:22;101146.00;;;12.30;100.00
3142;BME280;1581;51.568;6.998;2023-05-02T00:29:50;101144.81;;;12.32;100.00
3142;BME280;1581;51.568;6.998;2023-05-02T00:32:19;101140.00;;;12.42;100.00
3142;BME280;1581;51.568;6.998;2023-05-02T00:34:47;101146.72;;;12.38;100.00
3142;BME280;1581;51.568;6.998;2023-05-02T00:37:14;101150.34;;;12.52;100.00
3142;BME280;1581;51.568;6.998;2023-05-02T00:39:42;101137.25;;;12.57;100.00
3142;BME280;1581;51.568;6.998;2023-05-02T00:42:12;101145.88;;;12.59;100.00
3142;BME280;1581;51.568;6.998;2023-05-02T00:44:39;101148.38;;;12.39;100.00
3142;BME280;1581;51.568;6.998;2023-05-02T00:47:07;101130.34;;;12.48;100.00
3142;BME280;1581;51.568;6.998;2023-05-02T00:49:36;101137.34;;;12.49;100.00
3142;BME280;1581;51.568;6.998;2023-05-02T00:52:04;101139.41;;;12.47;100.00
3142;BME280;1581;51.568;6.998;2023-05-02T00:54:32;101144.50;;;12.42;100.00
3142;BME280;1581;51.568;6.998;2023-05-02T00:57:00;101143.69;;;12.41;100.00
3142;BME280;1581;51.568;6.998;2023-05-02T00:59:28;101144.41;;;12.35;100.00
3142;BME280;1581;51.568;6.998;2023-05-02T01:02:10;101149.41;;;12.38;100.00
3142;BME280;1581;51.568;6.998;2023-05-02T01:04:57;101151.91;;;12.25;100.00
3142;BME280;1581;51.568;6.998;2023-05-02T01:08:00;101156.69;;;12.30;100.00
3142;BME280;1581;51.568;6.998;2023-05-02T01:10:45;101168.34;;;12.43;100.00
3142;BME280;1581;51.568;6.998;2023-05-02T01:13:19;101165.09;;;12.48;100.00
3142;BME280;1581;51.568;6.998;2023-05-02T01:15:49;101164.41;;;12.39;100.00
3142;BME280;1581;51.568;6.998;2023-05-02T01:18:22;101167.13;;;12.25;100.00
3142;BME280;1581;51.568;6.998;2023-05-02T01:20:56;101172.66;;;12.23;100.00
3142;BME280;1581;51.568;6.998;2023-05-02T01:23:31;101179.22;;;12.42;100.00
3142;BME280;1581;51.568;6.998;2023-05-02T01:26:14;101177.66;;;12.47;100.00
3142;BME280;1581;51.568;6.998;2023-05-02T01:29:03;101174.59;;;12.29;100.00
3142;BME280;1581;51.568;6.998;2023-05-02T01:31:35;101168.88;;;12.32;100.00
3142;BME280;1581;51.568;6.998;2023-05-02T01:34:07;101181.19;;;12.33;100.00
3142;BME280;1581;51.568;6.998;2023-05-02T01:36:40;101177.66;;;12.47;100.00
3142;BME280;1581;51.568;6.998;2023-05-02T01:39:10;101183.50;;;12.57;100.00
3142;BME280;1581;51.568;6.998;2023-05-02T01:41:41;101191.28;;;12.52;100.00
3142;BME280;1581;51.568;6.998;2023-05-02T01:44:12;101195.09;;;12.64;100.00
3142;BME280;1581;51.568;6.998;2023-05-02T01:46:43;101198.09;;;12.55;100.00
3142;BME280;1581;51.568;6.998;2023-05-02T01:49:12;101196.63;;;12.52;100.00
3142;BME280;1581;51.568;6.998;2023-05-02T01:51:45;101198.09;;;12.55;100.00
3142;BME280;1581;51.568;6.998;2023-05-02T01:54:16;101196.63;;;12.52;100.00
3142;BME280;1581;51.568;6.998;2023-05-02T01:56:45;101205.41;;;12.67;100.00
3142;BME280;1581;51.568;6.998;2023-05-02T01:59:18;101212.41;;;12.68;100.00
3142;BME280;1581;51.568;6.998;2023-05-02T02:01:49;101209.72;;;12.47;100.00
3142;BME280;1581;51.568;6.998;2023-05-02T02:04:19;101215.41;;;12.59;100.00
3142;BME280;1581;51.568;6.998;2023-05-02T02:06:52;101217.53;;;12.49;100.00
3142;BME280;1581;51.568;6.998;2023-05-02T02:09:22;101215.88;;;12.62;100.00
3142;BME280;1581;51.568;6.998;2023-05-02T02:11:56;101223.63;;;12.57;100.00
3142;BME280;1581;51.568;6.998;2023-05-02T02:14:35;101220.13;;;12.57;100.00
3142;BME280;1581;51.568;6.998;2023-05-02T02:17:10;101229.97;;;12.21;100.00
3142;BME280;1581;51.568;6.998;2023-05-02T02:19:40;101226.97;;;12.45;100.00
3142;BME280;1581;51.568;6.998;2023-05-02T02:22:10;101238.06;;;12.63;100.00
3142;BME280;1581;51.568;6.998;2023-05-02T02:24:40;101229.25;;;12.62;100.00
3142;BME280;1581;51.568;6.998;2023-05-02T02:27:08;101239.25;;;12.39;100.00
3142;BME280;1581;51.568;6.998;2023-05-02T02:29:37;101239.41;;;12.52;100.00
3142;BME280;1581;51.568;6.998;2023-05-02T02:32:05;101239.22;;;12.54;100.00
3142;BME280;1581;51.568;6.998;2023-05-02T02:34:33;101230.56;;;12.73;100.00
3142;BME280;1581;51.568;6.998;2023-05-02T02:37:06;101242.09;;;12.52;100.00
3142;BME280;1581;51.568;6.998;2023-05-02T02:39:45;101247.06;;;12.41;100.00
3142;BME280;1581;51.568;6.998;2023-05-02T02:42:26;101244.59;;;12.39;100.00
3142;BME280;1581;51.568;6.998;2023-05-02T02:45:12;101240.50;;;12.43;100.00
3142;BME280;1581;51.568;6.998;2023-05-02T02:47:49;101246.59;;;12.52;100.00
3142;BME280;1581;51.568;6.998;2023-05-02T02:50:25;101248.63;;;12.50;100.00
3142;BME280;1581;51.568;6.998;2023-05-02T02:52:58;101249.53;;;12.57;100.00
3142;BME280;1581;51.568;6.998;2023-05-02T02:55:39;101248.00;;;12.33;100.00
3142;BME280;1581;51.568;6.998;2023-05-02T02:58:25;101248.50;;;12.58;100.00
3142;BME280;1581;51.568;6.998;2023-05-02T03:00:58;101249.56;;;12.63;100.00
3142;BME280;1581;51.568;6.998;2023-05-02T03:03:30;101250.00;;;12.81;100.00
3142;BME280;1581;51.568;6.998;2023-05-02T03:05:59;101251.47;;;12.84;100.00
3142;BME280;1581;51.568;6.998;2023-05-02T03:08:27;101252.72;;;12.67;100.00
3142;BME280;1581;51.568;6.998;2023-05-02T03:11:05;101250.56;;;12.77;100.00
3142;BME280;1581;51.568;6.998;2023-05-02T03:13:34;101263.16;;;12.83;100.00
3142;BME280;1581;51.568;6.998;2023-05-02T03:16:35;101263.03;;;12.70;100.00
3142;BME280;1581;51.568;6.998;2023-05-02T03:19:03;101265.38;;;12.58;100.00
3142;BME280;1581;51.568;6.998;2023-05-02T03:21:32;101262.63;;;12.52;100.00
3142;BME280;1581;51.568;6.998;2023-05-02T03:24:02;101263.09;;;12.76;100.00
3142;BME280;1581;51.568;6.998;2023-05-02T03:26:30;101257.38;;;12.79;100.00
3142;BME280;1581;51.568;6.998;2023-05-02T03:28:58;101259.41;;;12.77;100.00
3142;BME280;1581;51.568;6.998;2023-05-02T03:31:26;101265.75;;;12.55;100.00
3142;BME280;1581;51.568;6.998;2023-05-02T03:33:56;101269.50;;;12.61;100.00
3142;BME280;1581;51.568;6.998;2023-05-02T03:36:24;101266.72;;;12.69;100.00
3142;BME280;1581;51.568;6.998;2023-05-02T03:38:52;101268.00;;;12.73;100.00
3142;BME280;1581;51.568;6.998;2023-05-02T03:41:20;101268.25;;;12.57;100.00
3142;BME280;1581;51.568;6.998;2023-05-02T03:43:50;101272.34;;;12.38;100.00
3142;BME280;1581;51.568;6.998;2023-05-02T03:46:17;101275.22;;;12.58;100.00
3142;BME280;1581;51.568;6.998;2023-05-02T03:48:45;101283.16;;;12.66;100.00
3142;BME280;1581;51.568;6.998;2023-05-02T03:51:14;101283.69;;;12.40;100.00
3142;BME280;1581;51.568;6.998;2023-05-02T03:53:42;101288.25;;;12.46;100.00
3142;BME280;1581;51.568;6.998;2023-05-02T03:56:11;101293.44;;;12.33;100.00
3142;BME280;1581;51.568;6.998;2023-05-02T03:58:45;101296.03;;;12.41;100.00
3142;BME280;1581;51.568;6.998;2023-05-02T04:01:16;101296.44;;;12.59;100.00
3142;BME280;1581;51.568;6.998;2023-05-02T04:03:44;101299.50;;;12.42;100.00
3142;BME280;1581;51.568;6.998;2023-05-02T04:06:11;101297.56;;;12.50;100.00
3142;BME280;1581;51.568;6.998;2023-05-02T04:08:40;101303.81;;;12.57;100.00
3142;BME280;1581;51.568;6.998;2023-05-02T04:11:08;101307.56;;;12.27;100.00
3142;BME280;1581;51.568;6.998;2023-05-02T04:13:36;101296.88;;;12.13;100.00
3142;BME280;1581;51.568;6.998;2023-05-02T04:16:04;101313.53;;;12.29;100.00
3142;BME280;1581;51.568;6.998;2023-05-02T04:18:32;101310.03;;;12.29;100.00
3142;BME280;1581;51.568;6.998;2023-05-02T04:21:00;101310.00;;;12.43;100.00
3142;BME280;1581;51.568;6.998;2023-05-02T04:23:28;101306.41;;;12.51;100.00
3142;BME280;1581;51.568;6.998;2023-05-02T04:25:57;101314.66;;;12.35;100.00
3142;BME280;1581;51.568;6.998;2023-05-02T04:28:25;101316.56;;;12.41;100.00
3142;BME280;1581;51.568;6.998;2023-05-02T04:30:52;101324.03;;;12.45;100.00
3142;BME280;1581;51.568;6.998;2023-05-02T04:33:20;101324.91;;;12.17;100.00
3142;BME280;1581;51.568;6.998;2023-05-02T04:35:49;101329.94;;;12.26;100.00
3142;BME280;1581;51.568;6.998;2023-05-02T04:38:18;101330.94;;;12.25;100.00
3142;BME280;1581;51.568;6.998;2023-05-02T04:40:46;101328.38;;;12.32;100.00
3142;BME280;1581;51.568;6.998;2023-05-02T04:43:17;101344.94;;;12.42;100.00
3142;BME280;1581;51.568;6.998;2023-05-02T04:45:45;101339.38;;;12.22;100.00
3142;BME280;1581;51.568;6.998;2023-05-02T04:48:13;101348.19;;;12.37;100.00
3142;BME280;1581;51.568;6.998;2023-05-02T04:50:41;101359.63;;;12.02;100.00
3142;BME280;1581;51.568;6.998;2023-05-02T04:53:11;101369.00;;;12.13;100.00
3142;BME280;1581;51.568;6.998;2023-05-02T04:55:39;101372.03;;;11.96;100.00
3142;BME280;1581;51.568;6.998;2023-05-02T04:58:08;101374.69;;;11.96;100.00
3142;BME280;1581;51.568;6.998;2023-05-02T05:00:37;101377.28;;;12.03;100.00
3142;BME280;1581;51.568;6.998;2023-05-02T05:03:05;101384.38;;;12.11;100.00
3142;BME280;1581;51.568;6.998;2023-05-02T05:05:33;101382.47;;;12.19;100.00
3142;BME280;1581;51.568;6.998;2023-05-02T05:08:01;101391.19;;;12.13;100.00
3142;BME280;1581;51.568;6.998;2023-05-02T05:10:29;101393.78;;;11.93;100.00
3142;BME280;1581;51.568;6.998;2023-05-02T05:12:57;101397.81;;;11.89;100.00
3142;BME280;1581;51.568;6.998;2023-05-02T05:15:25;101396.28;;;12.08;100.00
3142;BME280;1581;51.568;6.998;2023-05-02T05:17:54;101406.41;;;11.99;100.00
3142;BME280;1581;51.568;6.998;2023-05-02T05:20:22;101413.63;;;11.90;100.00
3142;BME280;1581;51.568;6.998;2023-05-02T05:22:49;101412.38;;;12.01;100.00
3142;BME280;1581;51.568;6.998;2023-05-02T05:25:17;101415.34;;;12.05;100.00
3142;BME280;1581;51.568;6.998;2023-05-02T05:27:48;101412.56;;;11.99;100.00
3142;BME280;1581;51.568;6.998;2023-05-02T05:30:17;101425.66;;;12.08;100.00
3142;BME280;1581;51.568;6.998;2023-05-02T05:32:45;101422.47;;;12.27;100.00
3142;BME280;1581;51.568;6.998;2023-05-02T05:35:15;101420.16;;;12.24;100.00
3142;BME280;1581;51.568;6.998;2023-05-02T05:37:42;101429.16;;;12.23;100.00
3142;BME280;1581;51.568;6.998;2023-05-02T05:40:11;101432.50;;;12.40;100.00
3142;BME280;1581;51.568;6.998;2023-05-02T05:42:39;101427.25;;;12.46;100.00
3142;BME280;1581;51.568;6.998;2023-05-02T05:45:08;101436.38;;;12.37;100.00
3142;BME280;1581;51.568;6.998;2023-05-02T05:47:35;101438.41;;;12.35;100.00
3142;BME280;1581;51.568;6.998;2023-05-02T05:50:05;101438.03;;;12.24;100.00
3142;BME280;1581;51.568;6.998;2023-05-02T05:52:34;101446.88;;;12.53;100.00
3142;BME280;1581;51.568;6.998;2023-05-02T05:55:03;101458.06;;;13.00;100.00
3142;BME280;1581;51.568;6.998;2023-05-02T05:57:31;101460.91;;;13.13;100.00
3142;BME280;1581;51.568;6.998;2023-05-02T05:59:59;101466.06;;;13.14;100.00
3142;BME280;1581;51.568;6.998;2023-05-02T06:02:27;101466.19;;;13.06;100.00
3142;BME280;1581;51.568;6.998;2023-05-02T06:04:55;101469.50;;;12.94;100.00
3142;BME280;1581;51.568;6.998;2023-05-02T06:07:23;101470.97;;;12.82;100.00
3142;BME280;1581;51.568;6.998;2023-05-02T06:09:52;101471.34;;;12.79;100.00
3142;BME280;1581;51.568;6.998;2023-05-02T06:12:20;101473.91;;;12.87;100.00
3142;BME280;1581;51.568;6.998;2023-05-02T06:14:51;101477.91;;;13.05;100.00
3142;BME280;1581;51.568;6.998;2023-05-02T06:17:19;101481.28;;;13.14;100.00
3142;BME280;1581;51.568;6.998;2023-05-02T06:19:47;101487.50;;;13.00;100.00
3142;BME280;1581;51.568;6.998;2023-05-02T06:22:15;101485.94;;;12.91;100.00
3142;BME280;1581;51.568;6.998;2023-05-02T06:24:42;101492.09;;;13.06;100.00
3142;BME280;1581;51.568;6.998;2023-05-02T06:27:11;101497.28;;;13.22;100.00
3142;BME280;1581;51.568;6.998;2023-05-02T06:29:39;101504.25;;;13.23;100.00
3142;BME280;1581;51.568;6.998;2023-05-02T06:32:07;101502.41;;;13.38;100.00
3142;BME280;1581;51.568;6.998;2023-05-02T06:34:36;101505.56;;;13.12;100.00
3142;BME280;1581;51.568;6.998;2023-05-02T06:37:04;101508.78;;;12.79;100.00
3142;BME280;1581;51.568;6.998;2023-05-02T06:39:32;101518.97;;;12.98;100.00
3142;BME280;1581;51.568;6.998;2023-05-02T06:42:00;101516.38;;;12.90;100.00
3142;BME280;1581;51.568;6.998;2023-05-02T06:44:29;101524.72;;;12.73;100.00
3142;BME280;1581;51.568;6.998;2023-05-02T06:46:57;101525.59;;;12.88;100.00
3142;BME280;1581;51.568;6.998;2023-05-02T06:49:25;101533.81;;;13.00;100.00
3142;BME280;1581;51.568;6.998;2023-05-02T06:51:53;101534.44;;;12.88;100.00
3142;BME280;1581;51.568;6.998;2023-05-02T06:54:21;101546.09;;;12.44;100.00
3142;BME280;1581;51.568;6.998;2023-05-02T06:56:49;101547.22;;;12.49;100.00
3142;BME280;1581;51.568;6.998;2023-05-02T06:59:17;101554.31;;;12.20;100.00
3142;BME280;1581;51.568;6.998;2023-05-02T07:01:46;101552.00;;;12.17;100.00
3142;BME280;1581;51.568;6.998;2023-05-02T07:04:13;101553.75;;;12.24;100.00
3142;BME280;1581;51.568;6.998;2023-05-02T07:06:41;101568.50;;;12.20;100.00
3142;BME280;1581;51.568;6.998;2023-05-02T07:09:09;101576.16;;;12.01;100.00
3142;BME280;1581;51.568;6.998;2023-05-02T07:11:36;101585.50;;;12.05;100.00
3142;BME280;1581;51.568;6.998;2023-05-02T07:14:04;101587.53;;;11.73;100.00
3142;BME280;1581;51.568;6.998;2023-05-02T07:16:32;101589.69;;;12.00;100.00
3142;BME280;1581;51.568;6.998;2023-05-02T07:19:01;101595.38;;;11.97;100.00
3142;BME280;1581;51.568;6.998;2023-05-02T07:21:29;101604.78;;;11.93;100.00
3142;BME280;1581;51.568;6.998;2023-05-02T07:23:57;101602.59;;;11.88;100.00
3142;BME280;1581;51.568;6.998;2023-05-02T07:26:25;101612.94;;;11.91;100.00
3142;BME280;1581;51.568;6.998;2023-05-02T07:28:54;101611.06;;;12.00;100.00
3142;BME280;1581;51.568;6.998;2023-05-02T07:31:22;101622.84;;;12.13;100.00
3142;BME280;1581;51.568;6.998;2023-05-02T07:33:50;101620.09;;;12.21;100.00
3142;BME280;1581;51.568;6.998;2023-05-02T07:36:19;101614.41;;;12.24;100.00
3142;BME280;1581;51.568;6.998;2023-05-02T07:38:47;101622.16;;;12.33;100.00
3142;BME280;1581;51.568;6.998;2023-05-02T07:41:14;101617.66;;;12.56;100.00
3142;BME280;1581;51.568;6.998;2023-05-02T07:43:42;101627.19;;;12.73;100.00
3142;BME280;1581;51.568;6.998;2023-05-02T07:46:09;101631.72;;;13.09;100.00
3142;BME280;1581;51.568;6.998;2023-05-02T07:48:37;101631.34;;;12.98;100.00
3142;BME280;1581;51.568;6.998;2023-05-02T07:51:06;101644.41;;;12.93;100.00
3142;BME280;1581;51.568;6.998;2023-05-02T07:53:36;101649.97;;;13.06;100.00
3142;BME280;1581;51.568;6.998;2023-05-02T07:56:04;101648.50;;;13.03;100.00
3142;BME280;1581;51.568;6.998;2023-05-02T07:58:33;101655.31;;;12.69;100.00
3142;BME280;1581;51.568;6.998;2023-05-02T08:01:01;101663.03;;;12.64;100.00
3142;BME280;1581;51.568;6.998;2023-05-02T08:03:29;101664.53;;;12.44;100.00
3142;BME280;1581;51.568;6.998;2023-05-02T08:06:01;101679.19;;;11.96;100.00
3142;BME280;1581;51.568;6.998;2023-05-02T08:08:29;101677.50;;;11.64;100.00
3142;BME280;1581;51.568;6.998;2023-05-02T08:10:58;101672.53;;;11.53;100.00
3142;BME280;1581;51.568;6.998;2023-05-02T08:13:26;101671.84;;;11.59;100.00
3142;BME280;1581;51.568;6.998;2023-05-02T08:15:54;101688.03;;;11.50;100.00
3142;BME280;1581;51.568;6.998;2023-05-02T08:18:23;101696.22;;;11.40;100.00
3142;BME280;1581;51.568;6.998;2023-05-02T08:20:51;101696.69;;;11.68;100.00
3142;BME280;1581;51.568;6.998;2023-05-02T08:23:19;101694.06;;;11.60;100.00
3142;BME280;1581;51.568;6.998;2023-05-02T08:25:47;101701.25;;;11.35;100.00
3142;BME280;1581;51.568;6.998;2023-05-02T08:28:16;101711.03;;;11.67;100.00
3142;BME280;1581;51.568;6.998;2023-05-02T08:30:45;101709.84;;;11.69;100.00
3142;BME280;1581;51.568;6.998;2023-05-02T08:33:12;101708.84;;;11.70;100.00
3142;BME280;1581;51.568;6.998;2023-05-02T08:35:40;101717.97;;;11.92;100.00
3142;BME280;1581;51.568;6.998;2023-05-02T08:38:08;101722.69;;;11.82;100.00
3142;BME280;1581;51.568;6.998;2023-05-02T08:40:37;101724.97;;;11.93;100.00
3142;BME280;1581;51.568;6.998;2023-05-02T08:43:05;101733.09;;;11.99;100.00
3142;BME280;1581;51.568;6.998;2023-05-02T08:45:39;101734.09;;;12.06;100.00
3142;BME280;1581;51.568;6.998;2023-05-02T08:48:10;101727.34;;;12.48;100.00
3142;BME280;1581;51.568;6.998;2023-05-02T08:50:39;101746.94;;;12.93;100.00
3142;BME280;1581;51.568;6.998;2023-05-02T08:53:09;101749.16;;;12.82;100.00
3142;BME280;1581;51.568;6.998;2023-05-02T08:55:39;101755.34;;;12.83;100.00
3142;BME280;1581;51.568;6.998;2023-05-02T08:58:08;101756.19;;;13.05;100.00
3142;BME280;1581;51.568;6.998;2023-05-02T09:00:41;101754.41;;;12.98;100.00
3142;BME280;1581;51.568;6.998;2023-05-02T09:03:20;101759.88;;;13.04;100.00
3142;BME280;1581;51.568;6.998;2023-05-02T09:05:54;101756.88;;;12.77;100.00
3142;BME280;1581;51.568;6.998;2023-05-02T09:08:27;101755.56;;;12.73;100.00
3142;BME280;1581;51.568;6.998;2023-05-02T09:10:55;101759.44;;;12.93;100.00
3142;BME280;1581;51.568;6.998;2023-05-02T09:13:30;101771.53;;;12.89;100.00
3142;BME280;1581;51.568;6.998;2023-05-02T09:16:02;101774.09;;;13.27;100.00
3142;BME280;1581;51.568;6.998;2023-05-02T09:18:32;101782.31;;;13.55;100.00
3142;BME280;1581;51.568;6.998;2023-05-02T09:21:05;101775.72;;;13.79;100.00
3142;BME280;1581;51.568;6.998;2023-05-02T09:23:39;101774.88;;;13.93;100.00
3142;BME280;1581;51.568;6.998;2023-05-02T09:26:16;101782.91;;;13.79;96.79
3142;BME280;1581;51.568;6.998;2023-05-02T09:28:46;101786.63;;;14.36;95.28
3142;BME280;1581;51.568;6.998;2023-05-02T09:31:17;101789.59;;;14.62;91.83
3142;BME280;1581;51.568;6.998;2023-05-02T09:33:45;101796.50;;;14.70;90.06
3142;BME280;1581;51.568;6.998;2023-05-02T09:36:17;101793.66;;;14.58;88.52
3142;BME280;1581;51.568;6.998;2023-05-02T09:38:47;101794.00;;;14.48;86.89
3142;BME280;1581;51.568;6.998;2023-05-02T09:41:17;101802.31;;;14.74;83.67
3142;BME280;1581;51.568;6.998;2023-05-02T09:43:55;101805.31;;;15.00;81.45
3142;BME280;1581;51.568;6.998;2023-05-02T09:46:25;101814.00;;;15.44;79.58
3142;BME280;1581;51.568;6.998;2023-05-02T09:48:54;101811.31;;;15.71;79.37
3142;BME280;1581;51.568;6.998;2023-05-02T09:51:24;101815.41;;;15.94;76.73
3142;BME280;1581;51.568;6.998;2023-05-02T09:53:53;101820.25;;;16.39;70.57
3142;BME280;1581;51.568;6.998;2023-05-02T09:56:21;101815.31;;;16.49;72.02
3142;BME280;1581;51.568;6.998;2023-05-02T09:58:50;101816.94;;;17.23;67.74
3142;BME280;1581;51.568;6.998;2023-05-02T10:01:19;101822.13;;;17.18;66.18
3142;BME280;1581;51.568;6.998;2023-05-02T10:03:49;101824.00;;;17.17;65.80
3142;BME280;1581;51.568;6.998;2023-05-02T10:06:19;101822.03;;;16.72;66.07
3142;BME280;1581;51.568;6.998;2023-05-02T10:08:49;101827.59;;;16.64;68.12
3142;BME280;1581;51.568;6.998;2023-05-02T10:11:18;101826.38;;;16.27;65.06
3142;BME280;1581;51.568;6.998;2023-05-02T10:13:47;101823.19;;;17.17;64.52
3142;BME280;1581;51.568;6.998;2023-05-02T10:16:22;101831.84;;;17.06;65.66
